createdAt,value
2024-03-12T00:00:16.416Z,97852.31
2024-03-12T00:03:05.410Z,97850.22
2024-03-12T00:05:32.248Z,97858.84
2024-03-12T00:07:59.338Z,97858.47
2024-03-12T00:10:26.188Z,97857.09
2024-03-12T00:12:54.225Z,97857.63
2024-03-12T00:15:25.532Z,97850.22
2024-03-12T00:17:55.115Z,97854.78
2024-03-12T00:20:31.040Z,97855.22
2024-03-12T00:22:59.920Z,97850.84
2024-03-12T00:25:27.011Z,97855.69
2024-03-12T00:27:56.399Z,97856.84
2024-03-12T00:30:26.484Z,97851.44
2024-03-12T00:32:55.465Z,97850.59
2024-03-12T00:35:25.410Z,97854.00
2024-03-12T00:37:53.035Z,97858.72
2024-03-12T00:40:23.375Z,97853.31
2024-03-12T00:42:51.748Z,97851.59
2024-03-12T00:45:26.809Z,97851.75
2024-03-12T00:47:54.972Z,97847.50
2024-03-12T00:50:24.299Z,97851.38
2024-03-12T00:52:54.361Z,97850.03
2024-03-12T00:55:21.947Z,97851.91
2024-03-12T00:57:49.755Z,97853.78
2024-03-12T01:00:26.611Z,97841.53
2024-03-12T01:02:59.688Z,97835.59
2024-03-12T01:05:28.230Z,97843.78
2024-03-12T01:07:55.881Z,97839.72
2024-03-12T01:10:22.864Z,97843.56
2024-03-12T01:12:53.217Z,97838.16
2024-03-12T01:15:20.512Z,97842.03
2024-03-12T01:17:49.220Z,97832.91
2024-03-12T01:20:20.401Z,97838.31
2024-03-12T01:22:55.344Z,97833.44
2024-03-12T01:25:23.066Z,97836.47
2024-03-12T01:27:50.895Z,97832.91
2024-03-12T01:30:18.097Z,97838.00
2024-03-12T01:32:48.799Z,97842.72
2024-03-12T01:35:15.743Z,97835.31
2024-03-12T01:37:44.574Z,97835.59
2024-03-12T01:40:26.833Z,97830.66
2024-03-12T01:42:55.522Z,97827.78
2024-03-12T01:45:23.894Z,97830.50
2024-03-12T01:47:51.963Z,97827.25
2024-03-12T01:50:19.535Z,97823.72
2024-03-12T01:52:47.586Z,97826.41
2024-03-12T01:55:15.038Z,97827.94
2024-03-12T01:57:42.972Z,97830.66
2024-03-12T02:00:14.733Z,97831.28
2024-03-12T02:02:46.309Z,97832.50
2024-03-12T02:05:14.127Z,97829.81
2024-03-12T02:07:48.442Z,97824.84
2024-03-12T02:10:15.411Z,97827.31
2024-03-12T02:12:45.362Z,97825.47
2024-03-12T02:15:19.024Z,97820.09
2024-03-12T02:17:46.901Z,97821.47
2024-03-12T02:20:14.193Z,97828.72
2024-03-12T02:22:41.597Z,97827.47
2024-03-12T02:25:11.513Z,97832.13
2024-03-12T02:27:41.853Z,97827.88
2024-03-12T02:30:09.914Z,97823.78
2024-03-12T02:32:37.890Z,97825.41
2024-03-12T02:35:05.878Z,97821.66
2024-03-12T02:37:33.339Z,97814.44
2024-03-12T02:40:00.278Z,97824.38
2024-03-12T02:42:29.503Z,97829.31
2024-03-12T02:44:57.947Z,97817.28
2024-03-12T02:47:26.028Z,97821.66
2024-03-12T02:49:52.825Z,97824.94
2024-03-12T02:52:21.607Z,97822.41
2024-03-12T02:54:48.600Z,97816.28
2024-03-12T02:57:15.992Z,97828.09
2024-03-12T02:59:43.156Z,97820.97
2024-03-12T03:02:10.717Z,97819.44
2024-03-12T03:04:38.129Z,97829.53
2024-03-12T03:07:05.692Z,97825.00
2024-03-12T03:09:32.737Z,97828.84
2024-03-12T03:12:00.944Z,97831.78
2024-03-12T03:14:27.746Z,97829.53
2024-03-12T03:16:55.702Z,97835.09
2024-03-12T03:19:24.242Z,97837.72
2024-03-12T03:21:51.508Z,97831.00
2024-03-12T03:24:18.388Z,97832.31
2024-03-12T03:26:45.494Z,97832.72
2024-03-12T03:29:12.702Z,97830.56
2024-03-12T03:31:42.900Z,97839.78
2024-03-12T03:34:12.326Z,97837.97
2024-03-12T03:36:41.029Z,97842.66
2024-03-12T03:39:09.881Z,97848.03
2024-03-12T03:41:37.220Z,97845.81
2024-03-12T03:44:04.051Z,97849.06
2024-03-12T03:46:31.126Z,97855.16
2024-03-12T03:48:59.038Z,97848.78
2024-03-12T03:51:27.124Z,97854.63
2024-03-12T03:53:54.216Z,97850.50
2024-03-12T03:56:22.941Z,97856.16
2024-03-12T03:58:50.382Z,97855.06
2024-03-12T04:01:17.800Z,97854.66
2024-03-12T04:03:46.010Z,97856.06
2024-03-12T04:06:13.495Z,97854.91
2024-03-12T04:08:40.325Z,97856.91
2024-03-12T04:11:07.484Z,97858.75
2024-03-12T04:13:34.364Z,97856.22
2024-03-12T04:16:01.628Z,97856.38
2024-03-12T04:18:29.958Z,97853.81
2024-03-12T04:20:57.503Z,97855.50
2024-03-12T04:23:24.509Z,97844.25
2024-03-12T04:25:52.285Z,97854.75
2024-03-12T04:28:20.913Z,97852.34
2024-03-12T04:30:50.137Z,97856.66
2024-03-12T04:33:18.981Z,97857.50
2024-03-12T04:35:46.514Z,97857.38
2024-03-12T04:38:17.460Z,97861.19
2024-03-12T04:40:48.234Z,97864.91
2024-03-12T04:43:16.052Z,97873.03
2024-03-12T04:45:43.272Z,97859.38
2024-03-12T04:48:11.288Z,97866.78
2024-03-12T04:50:39.042Z,97875.03
2024-03-12T04:53:06.102Z,97869.47
2024-03-12T04:55:38.087Z,97875.31
2024-03-12T04:58:08.017Z,97871.16
2024-03-12T05:00:35.282Z,97876.16
2024-03-12T05:03:02.075Z,97873.88
2024-03-12T05:05:29.254Z,97880.09
2024-03-12T05:07:56.021Z,97881.56
2024-03-12T05:10:23.236Z,97888.38
2024-03-12T05:12:53.182Z,97886.25
2024-03-12T05:15:21.586Z,97890.06
2024-03-12T05:17:50.055Z,97890.66
2024-03-12T05:20:18.700Z,97891.22
2024-03-12T05:22:48.267Z,97885.44
2024-03-12T05:25:25.537Z,97884.00
2024-03-12T05:27:52.634Z,97887.69
2024-03-12T05:30:22.141Z,97896.50
2024-03-12T05:32:50.073Z,97898.06
2024-03-12T05:35:24.418Z,97892.53
2024-03-12T05:38:23.443Z,97897.78
2024-03-12T05:41:16.309Z,97898.81
2024-03-12T05:44:01.965Z,97900.63
2024-03-12T05:46:48.366Z,97901.66
2024-03-12T05:49:15.737Z,97905.47
2024-03-12T05:51:43.455Z,97903.19
2024-03-12T05:54:10.982Z,97908.59
2024-03-12T05:56:39.176Z,97910.44
2024-03-12T05:59:06.184Z,97910.03
2024-03-12T06:01:33.749Z,97910.44
2024-03-12T06:04:00.882Z,97914.28
2024-03-12T06:06:28.183Z,97923.69
2024-03-12T06:08:55.596Z,97919.09
2024-03-12T06:11:23.908Z,97932.88
2024-03-12T06:13:50.730Z,97936.47
2024-03-12T06:16:20.113Z,97943.53
2024-03-12T06:18:47.108Z,97942.84
2024-03-12T06:21:14.247Z,97940.28
2024-03-12T06:23:41.254Z,97945.41
2024-03-12T06:26:08.431Z,97944.84
2024-03-12T06:28:35.834Z,97956.78
2024-03-12T06:31:05.519Z,97951.25
2024-03-12T06:33:32.863Z,97959.34
2024-03-12T06:36:00.015Z,97949.78
2024-03-12T06:38:26.842Z,97957.63
2024-03-12T06:40:54.170Z,97959.63
2024-03-12T06:43:22.439Z,97959.34
2024-03-12T06:45:50.846Z,97959.34
2024-03-12T06:48:20.497Z,97961.06
2024-03-12T06:50:47.803Z,97966.03
2024-03-12T06:53:17.761Z,97968.59
2024-03-12T06:55:47.346Z,97967.72
2024-03-12T06:58:20.248Z,97975.09
2024-03-12T07:00:49.582Z,97970.13
2024-03-12T07:03:18.376Z,97974.25
2024-03-12T07:05:48.652Z,97980.66
2024-03-12T07:08:18.442Z,97974.56
2024-03-12T07:10:46.893Z,97978.78
2024-03-12T07:13:14.341Z,97982.19
2024-03-12T07:15:42.925Z,97984.59
2024-03-12T07:18:09.962Z,97986.88
2024-03-12T07:20:37.208Z,97984.06
2024-03-12T07:23:07.500Z,97984.34
2024-03-12T07:25:35.081Z,97990.47
2024-03-12T07:28:07.852Z,97987.75
2024-03-12T07:30:36.055Z,97989.44
2024-03-12T07:33:06.085Z,97992.00
2024-03-12T07:35:35.354Z,97997.41
2024-03-12T07:38:04.024Z,97994.16
2024-03-12T07:40:31.794Z,97996.28
2024-03-12T07:43:00.136Z,98009.78
2024-03-12T07:45:28.258Z,98005.38
2024-03-12T07:47:56.843Z,98000.53
2024-03-12T07:50:24.084Z,97994.97
2024-03-12T07:52:52.291Z,98000.38
2024-03-12T07:55:19.592Z,98004.78
2024-03-12T07:57:46.516Z,98006.06
2024-03-12T08:00:17.975Z,98007.22
2024-03-12T08:02:45.125Z,98011.88
2024-03-12T08:05:13.588Z,98010.06
2024-03-12T08:07:40.558Z,98005.34
2024-03-12T08:10:10.543Z,98015.75
2024-03-12T08:12:40.861Z,98012.91
2024-03-12T08:15:11.279Z,98013.03
2024-03-12T08:17:39.522Z,98020.72
2024-03-12T08:20:11.753Z,98024.13
2024-03-12T08:22:39.773Z,98021.69
2024-03-12T08:25:10.826Z,98027.50
2024-03-12T08:27:41.018Z,98032.06
2024-03-12T08:30:09.486Z,98031.78
2024-03-12T08:32:37.609Z,98039.16
2024-03-12T08:35:05.123Z,98040.72
2024-03-12T08:37:34.379Z,98042.59
2024-03-12T08:40:03.842Z,98040.59
2024-03-12T08:42:32.304Z,98041.56
2024-03-12T08:44:59.994Z,98042.28
2024-03-12T08:47:26.934Z,98049.94
2024-03-12T08:49:54.168Z,98050.78
2024-03-12T08:52:23.246Z,98053.50
2024-03-12T08:54:50.404Z,98053.50
2024-03-12T08:57:17.240Z,98056.50
2024-03-12T08:59:44.464Z,98055.06
2024-03-12T09:02:11.924Z,98059.22
2024-03-12T09:04:39.854Z,98057.91
2024-03-12T09:07:07.164Z,98058.75
2024-03-12T09:09:34.505Z,98058.06
2024-03-12T09:12:01.366Z,98057.22
2024-03-12T09:14:28.583Z,98063.59
2024-03-12T09:16:55.443Z,98061.31
2024-03-12T09:19:26.192Z,98060.47
2024-03-12T09:21:54.412Z,98058.19
2024-03-12T09:24:21.675Z,98058.59
2024-03-12T09:26:49.040Z,98060.59
2024-03-12T09:29:16.204Z,98065.31
2024-03-12T09:31:45.559Z,98065.31
2024-03-12T09:34:13.585Z,98074.41
2024-03-12T09:36:40.910Z,98070.72
2024-03-12T09:39:12.211Z,98070.16
2024-03-12T09:41:42.060Z,98080.97
2024-03-12T09:44:12.122Z,98084.34
2024-03-12T09:46:40.381Z,98091.47
2024-03-12T09:49:08.815Z,98084.06
2024-03-12T09:51:36.159Z,98088.59
2024-03-12T09:54:05.211Z,98094.47
2024-03-12T09:56:34.757Z,98086.78
2024-03-12T09:59:03.996Z,98095.72
2024-03-12T10:01:30.826Z,98092.88
2024-03-12T10:03:58.440Z,98098.44
2024-03-12T10:06:26.680Z,98099.59
2024-03-12T10:08:58.438Z,98099.41
2024-03-12T10:11:25.302Z,98092.47
2024-03-12T10:14:00.016Z,98101.56
2024-03-12T10:16:28.958Z,98100.72
2024-03-12T10:19:12.613Z,98100.00
2024-03-12T10:21:41.699Z,98097.88
2024-03-12T10:24:24.223Z,98105.69
2024-03-12T10:26:51.058Z,98103.97
2024-03-12T10:29:22.170Z,98100.72
2024-03-12T10:31:49.269Z,98110.38
2024-03-12T10:34:21.450Z,98110.53
2024-03-12T10:36:50.910Z,98106.41
2024-03-12T10:39:30.833Z,98108.25
2024-03-12T10:42:01.241Z,98114.78
2024-03-12T10:44:29.991Z,98115.94
2024-03-12T10:46:59.657Z,98119.75
2024-03-12T10:49:27.925Z,98116.91
2024-03-12T10:51:54.878Z,98121.19
2024-03-12T10:54:25.206Z,98117.34
2024-03-12T10:56:52.318Z,98126.44
2024-03-12T10:59:19.445Z,98124.75
2024-03-12T11:01:46.487Z,98120.59
2024-03-12T11:04:14.851Z,98119.91
2024-03-12T11:06:41.719Z,98122.59
2024-03-12T11:09:12.784Z,98128.28
2024-03-12T11:11:40.718Z,98126.31
2024-03-12T11:14:09.019Z,98125.59
2024-03-12T11:16:36.361Z,98135.81
2024-03-12T11:19:24.806Z,98127.03
2024-03-12T11:21:52.775Z,98135.25
2024-03-12T11:24:27.208Z,98134.56
2024-03-12T11:26:54.142Z,98137.81
2024-03-12T11:29:43.395Z,98132.28
2024-03-12T11:32:12.412Z,98126.47
2024-03-12T11:34:41.405Z,98131.13
2024-03-12T11:37:18.924Z,98132.56
2024-03-12T11:39:46.211Z,98138.09
2024-03-12T11:42:16.116Z,98131.84
2024-03-12T11:44:56.625Z,98128.56
2024-03-12T11:47:36.110Z,98131.13
2024-03-12T11:50:05.175Z,98133.13
2024-03-12T11:52:33.479Z,98135.53
2024-03-12T11:55:01.077Z,98133.81
2024-03-12T11:57:31.506Z,98142.25
2024-03-12T11:59:59.080Z,98147.19
2024-03-12T12:02:27.799Z,98147.19
2024-03-12T12:04:56.057Z,98143.94
2024-03-12T12:07:23.774Z,98146.50
2024-03-12T12:09:51.938Z,98142.53
2024-03-12T12:12:19.385Z,98143.22
2024-03-12T12:14:48.827Z,98137.97
2024-03-12T12:17:25.198Z,98132.16
2024-03-12T12:20:22.566Z,98139.81
2024-03-12T12:22:51.238Z,98136.09
2024-03-12T12:25:22.850Z,98136.97
2024-03-12T12:27:50.191Z,98143.78
2024-03-12T12:30:18.719Z,98143.78
2024-03-12T12:32:45.676Z,98149.31
2024-03-12T12:35:13.217Z,98150.06
2024-03-12T12:37:40.412Z,98148.63
2024-03-12T12:40:10.310Z,98154.72
2024-03-12T12:42:39.828Z,98155.16
2024-03-12T12:45:09.865Z,98156.00
2024-03-12T12:47:37.838Z,98164.13
2024-03-12T12:50:06.165Z,98158.00
2024-03-12T12:52:33.106Z,98162.25
2024-03-12T12:55:00.674Z,98169.09
2024-03-12T12:57:28.931Z,98168.22
2024-03-12T12:59:57.171Z,98168.06
2024-03-12T13:02:24.426Z,98171.09
2024-03-12T13:05:03.840Z,98169.09
2024-03-12T13:07:33.279Z,98163.13
2024-03-12T13:10:19.467Z,98172.63
2024-03-12T13:12:47.325Z,98157.84
2024-03-12T13:15:35.602Z,98168.09
2024-03-12T13:18:05.832Z,98166.81
2024-03-12T13:20:34.361Z,98166.50
2024-03-12T13:23:01.322Z,98163.69
2024-03-12T13:25:28.537Z,98173.91
2024-03-12T13:27:55.458Z,98172.75
2024-03-12T13:30:22.756Z,98172.59
2024-03-12T13:32:49.644Z,98185.53
2024-03-12T13:35:16.804Z,98184.72
2024-03-12T13:37:46.076Z,98179.72
2024-03-12T13:40:16.086Z,98193.91
2024-03-12T13:42:43.198Z,98184.28
2024-03-12T13:45:10.873Z,98190.25
2024-03-12T13:47:39.727Z,98190.66
2024-03-12T13:50:08.332Z,98182.84
2024-03-12T13:52:35.164Z,98183.84
2024-03-12T13:55:02.325Z,98190.22
2024-03-12T13:57:29.421Z,98195.22
2024-03-12T13:59:56.508Z,98200.31
2024-03-12T14:02:24.293Z,98201.47
2024-03-12T14:04:52.827Z,98197.03
2024-03-12T14:07:20.574Z,98199.19
2024-03-12T14:09:47.992Z,98198.19
2024-03-12T14:12:14.949Z,98193.94
2024-03-12T14:14:42.881Z,98199.03
2024-03-12T14:17:09.826Z,98202.59
2024-03-12T14:19:37.030Z,98200.19
2024-03-12T14:22:04.921Z,98203.19
2024-03-12T14:24:32.150Z,98201.19
2024-03-12T14:26:59.727Z,98202.59
2024-03-12T14:29:27.944Z,98205.44
2024-03-12T14:31:54.785Z,98213.84
2024-03-12T14:34:21.932Z,98211.16
2024-03-12T14:36:48.739Z,98213.56
2024-03-12T14:39:16.230Z,98213.97
2024-03-12T14:41:43.054Z,98213.25
2024-03-12T14:44:10.253Z,98217.22
2024-03-12T14:46:37.135Z,98217.63
2024-03-12T14:49:05.710Z,98219.50
2024-03-12T14:51:33.719Z,98226.16
2024-03-12T14:54:00.883Z,98225.91
2024-03-12T14:56:27.960Z,98224.38
2024-03-12T14:58:55.173Z,98220.97
2024-03-12T15:01:22.109Z,98227.63
2024-03-12T15:03:49.428Z,98226.47
2024-03-12T15:06:16.413Z,98229.31
2024-03-12T15:08:43.592Z,98232.28
2024-03-12T15:11:10.651Z,98236.28
2024-03-12T15:13:38.103Z,98237.53
2024-03-12T15:16:07.916Z,98236.84
2024-03-12T15:18:36.237Z,98237.25
2024-03-12T15:21:03.988Z,98243.66
2024-03-12T15:23:31.634Z,98233.97
2024-03-12T15:25:58.813Z,98239.53
2024-03-12T15:28:25.980Z,98232.13
2024-03-12T15:30:52.903Z,98237.38
2024-03-12T15:33:20.180Z,98239.53
2024-03-12T15:35:47.125Z,98240.25
2024-03-12T15:38:14.298Z,98240.06
2024-03-12T15:40:41.835Z,98243.78
2024-03-12T15:43:10.478Z,98251.75
2024-03-12T15:45:37.610Z,98249.69
2024-03-12T15:48:09.007Z,98252.25
2024-03-12T15:50:36.104Z,98246.72
2024-03-12T15:53:03.270Z,98252.25
2024-03-12T15:55:31.236Z,98260.34
2024-03-12T15:57:59.809Z,98253.94
2024-03-12T16:00:27.050Z,98254.25
2024-03-12T16:02:55.446Z,98258.47
2024-03-12T16:05:23.575Z,98259.91
2024-03-12T16:07:52.576Z,98262.75
2024-03-12T16:10:21.767Z,98260.44
2024-03-12T16:12:49.148Z,98264.28
2024-03-12T16:15:19.131Z,98266.16
2024-03-12T16:17:46.343Z,98272.69
2024-03-12T16:20:14.015Z,98277.38
2024-03-12T16:22:42.244Z,98268.28
2024-03-12T16:25:09.485Z,98273.34
2024-03-12T16:27:36.841Z,98271.97
2024-03-12T16:30:04.797Z,98275.34
2024-03-12T16:32:33.762Z,98283.16
2024-03-12T16:35:00.914Z,98286.44
2024-03-12T16:37:28.612Z,98290.81
2024-03-12T16:39:55.616Z,98286.28
2024-03-12T16:42:22.966Z,98301.03
2024-03-12T16:44:51.238Z,98301.88
2024-03-12T16:47:18.562Z,98303.03
2024-03-12T16:49:47.350Z,98307.28
2024-03-12T16:52:15.482Z,98302.47
2024-03-12T16:54:43.023Z,98301.88
2024-03-12T16:57:10.990Z,98313.50
2024-03-12T16:59:38.067Z,98312.94
2024-03-12T17:02:09.431Z,98309.84
2024-03-12T17:04:38.063Z,98311.81
2024-03-12T17:07:09.589Z,98315.38
2024-03-12T17:09:38.466Z,98315.88
2024-03-12T17:12:06.477Z,98317.63
2024-03-12T17:14:36.112Z,98320.56
2024-03-12T17:17:08.316Z,98322.28
2024-03-12T17:19:36.049Z,98318.47
2024-03-12T17:22:03.973Z,98321.28
2024-03-12T17:24:32.081Z,98317.88
2024-03-12T17:26:59.554Z,98318.84
2024-03-12T17:29:26.826Z,98328.78
2024-03-12T17:31:55.011Z,98321.56
2024-03-12T17:34:22.756Z,98329.50
2024-03-12T17:36:49.958Z,98324.66
2024-03-12T17:39:19.753Z,98328.94
2024-03-12T17:41:47.799Z,98337.97
2024-03-12T17:44:15.012Z,98336.69
2024-03-12T17:46:46.548Z,98345.19
2024-03-12T17:49:19.957Z,98336.56
2024-03-12T17:51:47.829Z,98345.13
2024-03-12T17:54:17.521Z,98349.34
2024-03-12T17:56:48.482Z,98355.19
2024-03-12T17:59:20.337Z,98354.34
2024-03-12T18:01:48.587Z,98360.00
2024-03-12T18:04:15.987Z,98360.13
2024-03-12T18:06:43.894Z,98360.13
2024-03-12T18:09:16.512Z,98354.53
2024-03-12T18:11:44.081Z,98357.94
2024-03-12T18:14:11.660Z,98359.66
2024-03-12T18:16:39.442Z,98356.09
2024-03-12T18:19:06.997Z,98365.91
2024-03-12T18:21:34.481Z,98365.06
2024-03-12T18:24:01.741Z,98368.00
2024-03-12T18:26:29.020Z,98365.56
2024-03-12T18:28:57.927Z,98374.25
2024-03-12T18:31:25.500Z,98374.81
2024-03-12T18:33:52.383Z,98371.81
2024-03-12T18:36:19.501Z,98374.50
2024-03-12T18:38:46.426Z,98366.84
2024-03-12T18:41:15.213Z,98372.38
2024-03-12T18:43:42.165Z,98376.63
2024-03-12T18:46:09.609Z,98381.44
2024-03-12T18:48:37.075Z,98381.03
2024-03-12T18:51:06.009Z,98384.59
2024-03-12T18:53:34.838Z,98378.84
2024-03-12T18:56:04.002Z,98388.16
2024-03-12T18:58:31.142Z,98390.22
2024-03-12T19:00:59.266Z,98390.53
2024-03-12T19:03:30.122Z,98395.16
2024-03-12T19:06:02.125Z,98390.78
2024-03-12T19:08:30.182Z,98396.16
2024-03-12T19:10:57.469Z,98398.28
2024-03-12T19:13:24.770Z,98392.59
2024-03-12T19:15:52.243Z,98398.75
2024-03-12T19:18:22.503Z,98399.50
2024-03-12T19:20:50.623Z,98397.00
2024-03-12T19:23:18.106Z,98393.72
2024-03-12T19:25:45.271Z,98402.91
2024-03-12T19:28:12.425Z,98399.00
2024-03-12T19:30:40.198Z,98403.91
2024-03-12T19:33:07.686Z,98397.41
2024-03-12T19:35:35.322Z,98404.50
2024-03-12T19:38:02.375Z,98399.50
2024-03-12T19:40:29.833Z,98405.34
2024-03-12T19:42:58.829Z,98393.72
2024-03-12T19:45:28.937Z,98403.91
2024-03-12T19:47:57.796Z,98403.31
2024-03-12T19:50:28.622Z,98403.56
2024-03-12T19:52:56.601Z,98398.53
2024-03-12T19:55:31.266Z,98398.78
2024-03-12T19:58:01.258Z,98404.28
2024-03-12T20:00:36.041Z,98403.16
2024-03-12T20:03:06.050Z,98415.06
2024-03-12T20:05:34.002Z,98407.59
2024-03-12T20:08:05.919Z,98409.69
2024-03-12T20:10:33.810Z,98411.41
2024-03-12T20:13:05.628Z,98419.50
2024-03-12T20:15:33.711Z,98415.06
2024-03-12T20:18:02.391Z,98412.25
2024-03-12T20:20:29.902Z,98412.38
2024-03-12T20:22:59.004Z,98414.22
2024-03-12T20:25:27.422Z,98422.03
2024-03-12T20:27:55.152Z,98421.44
2024-03-12T20:30:28.450Z,98417.53
2024-03-12T20:33:00.021Z,98416.81
2024-03-12T20:35:33.106Z,98421.56
2024-03-12T20:38:00.438Z,98419.75
2024-03-12T20:40:28.955Z,98420.59
2024-03-12T20:43:00.161Z,98426.00
2024-03-12T20:45:27.862Z,98422.56
2024-03-12T20:47:55.839Z,98431.63
2024-03-12T20:50:23.181Z,98426.97
2024-03-12T20:52:51.159Z,98425.88
2024-03-12T20:55:19.513Z,98431.50
2024-03-12T20:57:49.670Z,98435.03
2024-03-12T21:00:29.457Z,98428.44
2024-03-12T21:02:56.606Z,98437.28
2024-03-12T21:05:23.845Z,98435.56
2024-03-12T21:07:53.293Z,98433.13
2024-03-12T21:10:20.772Z,98439.38
2024-03-12T21:12:52.270Z,98436.56
2024-03-12T21:15:20.013Z,98432.34
2024-03-12T21:17:47.236Z,98436.31
2024-03-12T21:20:19.568Z,98439.97
2024-03-12T21:22:46.646Z,98433.00
2024-03-12T21:25:13.859Z,98438.16
2024-03-12T21:27:40.836Z,98439.47
2024-03-12T21:30:13.689Z,98441.69
2024-03-12T21:32:41.649Z,98443.25
2024-03-12T21:35:09.315Z,98446.25
2024-03-12T21:37:37.553Z,98445.47
2024-03-12T21:40:05.739Z,98445.59
2024-03-12T21:42:32.971Z,98446.97
2024-03-12T21:45:00.199Z,98444.50
2024-03-12T21:47:27.667Z,98446.47
2024-03-12T21:49:56.298Z,98446.47
2024-03-12T21:52:23.120Z,98446.59
2024-03-12T21:54:52.421Z,98455.41
2024-03-12T21:57:19.244Z,98455.53
2024-03-12T21:59:48.283Z,98455.66
2024-03-12T22:02:15.103Z,98456.25
2024-03-12T22:04:42.176Z,98458.13
2024-03-12T22:07:09.092Z,98459.09
2024-03-12T22:09:36.705Z,98455.88
2024-03-12T22:12:03.776Z,98454.56
2024-03-12T22:14:30.946Z,98461.94
2024-03-12T22:16:57.698Z,98462.78
2024-03-12T22:19:24.855Z,98466.91
2024-03-12T22:21:52.561Z,98462.53
2024-03-12T22:24:23.865Z,98463.50
2024-03-12T22:26:54.525Z,98466.19
2024-03-12T22:29:22.197Z,98468.03
2024-03-12T22:31:49.870Z,98463.38
2024-03-12T22:34:17.420Z,98465.47
2024-03-12T22:36:45.597Z,98474.28
2024-03-12T22:39:14.430Z,98464.63
2024-03-12T22:41:48.813Z,98467.31
2024-03-12T22:44:16.797Z,98474.53
2024-03-12T22:46:46.109Z,98474.41
2024-03-12T22:49:13.494Z,98474.53
2024-03-12T22:51:41.427Z,98477.94
2024-03-12T22:54:10.009Z,98479.06
2024-03-12T22:56:37.389Z,98476.63
2024-03-12T22:59:05.431Z,98473.94
2024-03-12T23:01:32.771Z,98479.19
2024-03-12T23:04:01.338Z,98478.22
2024-03-12T23:06:28.413Z,98482.63
2024-03-12T23:08:55.702Z,98481.06
2024-03-12T23:11:25.910Z,98482.16
2024-03-12T23:13:54.276Z,98480.31
2024-03-12T23:16:21.278Z,98489.00
2024-03-12T23:18:49.679Z,98487.53
2024-03-12T23:21:18.402Z,98488.41
2024-03-12T23:23:45.849Z,98489.13
2024-03-12T23:26:12.726Z,98491.22
2024-03-12T23:28:39.811Z,98487.66
2024-03-12T23:31:07.442Z,98490.34
2024-03-12T23:33:35.219Z,98492.19
2024-03-12T23:36:02.096Z,98487.06
2024-03-12T23:38:29.451Z,98493.56
2024-03-12T23:40:56.229Z,98502.84
2024-03-12T23:43:24.694Z,98492.56
2024-03-12T23:45:51.660Z,98497.00
2024-03-12T23:48:18.783Z,98500.53
2024-03-12T23:50:45.587Z,98509.34
2024-03-12T23:53:12.697Z,98517.69
2024-03-12T23:55:40.456Z,98520.13
2024-03-12T23:58:07.692Z,98509.63
